createdAt,value
2018-12-01T00:00:33.425Z,56.92
2018-12-01T00:04:03.646Z,56.96
2018-12-01T00:07:33.746Z,57.02
2018-12-01T00:11:04.156Z,57.04
2018-12-01T00:14:34.256Z,57.09
2018-12-01T00:18:04.625Z,57.14
2018-12-01T00:21:34.746Z,57.2
2018-12-01T00:25:05.935Z,57.22
2018-12-01T00:28:36.218Z,57.26
2018-12-01T00:32:06.250Z,57.3
2018-12-01T00:35:36.366Z,57.32
2018-12-01T00:39:06.649Z,57.38
2018-12-01T00:42:37.237Z,57.42
2018-12-01T00:46:07.316Z,57.46
2018-12-01T00:49:37.328Z,57.49
2018-12-01T00:53:07.436Z,57.51
2018-12-01T00:56:37.576Z,57.56
2018-12-01T01:00:15.977Z,57.59
2018-12-01T01:03:46.116Z,57.65
2018-12-01T01:07:16.147Z,57.64
2018-12-01T01:10:46.307Z,57.7
2018-12-01T01:14:16.417Z,57.74
2018-12-01T01:17:46.526Z,57.8
2018-12-01T01:21:16.737Z,57.84
2018-12-01T01:24:46.957Z,57.86
2018-12-01T01:28:17.087Z,57.91
2018-12-01T01:31:47.117Z,57.95
2018-12-01T01:35:17.128Z,57.99
2018-12-01T01:38:47.187Z,58.04
2018-12-01T01:42:17.218Z,58.07
2018-12-01T01:45:47.412Z,58.11
2018-12-01T01:49:17.508Z,58.15
2018-12-01T01:52:47.898Z,58.19
2018-12-01T01:56:17.888Z,58.22
2018-12-01T01:59:47.998Z,58.27
2018-12-01T02:00:17.798Z,58.26
2018-12-01T02:03:47.848Z,58.3
2018-12-01T02:07:17.959Z,58.34
2018-12-01T02:10:48.088Z,58.36
2018-12-01T02:14:18.499Z,58.39
2018-12-01T02:17:48.720Z,58.43
2018-12-01T02:21:18.819Z,58.48
2018-12-01T02:24:48.809Z,58.5
2018-12-01T02:28:19.059Z,58.54
2018-12-01T02:31:49.090Z,58.58
2018-12-01T02:35:27.320Z,58.59
2018-12-01T02:38:57.380Z,58.61
2018-12-01T02:42:27.338Z,58.65
2018-12-01T02:48:09.312Z,58.68
2018-12-01T02:51:39.390Z,58.71
2018-12-01T02:55:09.620Z,58.75
2018-12-01T02:58:39.801Z,58.79
2018-12-01T03:02:09.976Z,58.82
2018-12-01T03:05:40.050Z,58.87
2018-12-01T03:09:10.150Z,58.9
2018-12-01T03:12:40.260Z,58.95
2018-12-01T03:16:10.260Z,58.97
2018-12-01T03:19:40.340Z,59
2018-12-01T03:23:10.410Z,59.05
2018-12-01T03:26:40.490Z,59.07
2018-12-01T03:30:10.714Z,59.11
2018-12-01T03:33:40.872Z,59.14
2018-12-01T03:37:10.885Z,59.18
2018-12-01T03:40:48.081Z,59.21
2018-12-01T03:44:18.161Z,59.26
2018-12-01T03:47:48.365Z,59.29
2018-12-01T03:51:18.372Z,59.34
2018-12-01T03:54:48.367Z,59.38
2018-12-01T03:58:18.472Z,59.42
2018-12-01T04:00:26.025Z,59.44
2018-12-01T04:03:56.051Z,59.47
2018-12-01T04:07:28.061Z,59.51
2018-12-01T04:10:58.191Z,59.55
2018-12-01T04:14:28.221Z,59.59
2018-12-01T04:17:58.271Z,59.61
2018-12-01T04:21:28.271Z,59.64
2018-12-01T04:24:58.312Z,59.66
2018-12-01T04:28:28.382Z,59.69
2018-12-01T04:31:58.552Z,59.73
2018-12-01T04:35:28.521Z,59.74
2018-12-01T04:38:58.631Z,59.78
2018-12-01T04:42:28.605Z,59.82
2018-12-01T04:45:58.672Z,59.86
2018-12-01T04:49:28.982Z,59.9
2018-12-01T04:52:58.992Z,59.94
2018-12-01T04:56:29.002Z,59.96
2018-12-01T04:59:59.134Z,60.02
2018-12-01T05:03:29.182Z,60.03
2018-12-01T05:06:59.262Z,60.05
2018-12-01T05:10:29.222Z,60.1
2018-12-01T05:13:59.263Z,60.12
2018-12-01T05:17:29.422Z,60.15
2018-12-01T05:20:59.624Z,60.19
2018-12-01T05:24:29.564Z,60.23
2018-12-01T05:27:59.638Z,60.26
2018-12-01T05:31:29.653Z,60.3
2018-12-01T05:34:59.723Z,60.33
2018-12-01T05:38:29.771Z,60.4
2018-12-01T05:41:59.803Z,60.44
2018-12-01T05:45:29.862Z,60.49
2018-12-01T05:48:59.882Z,60.52
2018-12-01T05:52:30.033Z,60.57
2018-12-01T05:56:00.123Z,60.63
2018-12-01T05:59:30.006Z,60.68
2018-12-01T06:00:16.783Z,60.68
2018-12-01T06:03:46.883Z,60.75
2018-12-01T06:07:16.915Z,60.78
2018-12-01T06:10:47.002Z,60.85
2018-12-01T06:14:17.142Z,60.92
2018-12-01T06:17:47.243Z,60.97
2018-12-01T06:21:17.340Z,61.02
2018-12-01T06:24:47.368Z,61.08
2018-12-01T06:28:17.401Z,61.13
2018-12-01T06:31:47.524Z,61.2
2018-12-01T06:35:17.619Z,61.27
2018-12-01T06:38:47.705Z,61.34
2018-12-01T06:42:17.766Z,61.42
2018-12-01T06:45:48.061Z,61.46
2018-12-01T06:49:18.152Z,61.51
2018-12-01T06:52:49.265Z,61.59
2018-12-01T06:56:19.390Z,61.65
2018-12-01T06:59:49.467Z,61.71
2018-12-01T07:03:19.551Z,61.77
2018-12-01T07:06:49.568Z,61.81
2018-12-01T07:10:20.466Z,61.88
2018-12-01T07:13:50.512Z,61.92
2018-12-01T07:17:20.631Z,61.95
2018-12-01T07:20:50.717Z,61.99
2018-12-01T07:24:20.759Z,62.04
2018-12-01T07:27:50.832Z,62.07
2018-12-01T07:31:20.845Z,62.1
2018-12-01T07:34:50.888Z,62.1
2018-12-01T07:38:20.908Z,62.14
2018-12-01T07:41:51.070Z,62.14
2018-12-01T07:45:21.151Z,62.17
2018-12-01T07:48:51.274Z,62.2
2018-12-01T07:52:21.354Z,62.24
2018-12-01T07:55:51.911Z,62.26
2018-12-01T07:59:21.916Z,62.28
2018-12-01T08:00:16.215Z,62.31
2018-12-01T08:03:46.365Z,62.31
2018-12-01T08:07:16.333Z,62.34
2018-12-01T08:10:46.441Z,62.37
2018-12-01T08:14:16.610Z,62.4
2018-12-01T08:17:46.650Z,62.39
2018-12-01T08:21:16.929Z,62.4
2018-12-01T08:24:47.059Z,62.41
2018-12-01T08:28:20.055Z,62.42
2018-12-01T08:31:50.158Z,62.45
2018-12-01T08:35:20.455Z,62.44
2018-12-01T08:38:50.497Z,62.43
2018-12-01T08:42:20.477Z,62.43
2018-12-01T08:45:50.506Z,62.41
2018-12-01T08:49:20.561Z,62.42
2018-12-01T08:52:51.285Z,62.39
2018-12-01T08:56:21.542Z,62.37
2018-12-01T08:59:51.690Z,62.38
2018-12-01T09:03:22.188Z,62.36
2018-12-01T09:06:52.290Z,62.35
2018-12-01T09:10:22.287Z,62.31
2018-12-01T09:13:52.685Z,62.29
2018-12-01T09:17:22.775Z,62.28
2018-12-01T09:20:52.806Z,62.24
2018-12-01T09:24:22.830Z,62.23
2018-12-01T09:27:52.935Z,62.19
2018-12-01T09:31:23.003Z,62.16
2018-12-01T09:34:53.022Z,62.15
2018-12-01T09:38:24.155Z,62.1
2018-12-01T09:41:54.267Z,62.07
2018-12-01T09:45:24.763Z,62.06
2018-12-01T09:48:54.784Z,62.01
2018-12-01T09:52:24.825Z,61.99
2018-12-01T09:55:54.965Z,61.95
2018-12-01T09:59:25.185Z,61.9
2018-12-01T10:00:19.756Z,61.91
2018-12-01T10:03:49.856Z,61.89
2018-12-01T10:07:19.780Z,61.85
2018-12-01T10:10:49.952Z,61.83
2018-12-01T10:14:19.946Z,61.77
2018-12-01T10:17:50.106Z,61.74
2018-12-01T10:21:20.036Z,61.71
2018-12-01T10:24:50.056Z,61.67
2018-12-01T10:28:20.115Z,61.64
2018-12-01T10:31:50.356Z,61.59
2018-12-01T10:35:21.845Z,61.56
2018-12-01T10:38:51.908Z,61.55
2018-12-01T10:42:21.997Z,61.52
2018-12-01T10:45:52.031Z,61.47
2018-12-01T10:49:22.147Z,61.45
2018-12-01T10:52:53.208Z,61.38
2018-12-01T10:56:23.430Z,61.3
2018-12-01T10:59:53.857Z,61.24
2018-12-01T11:03:56.266Z,61.2
2018-12-01T11:07:26.318Z,61.08
2018-12-01T11:10:56.401Z,60.99
2018-12-01T11:14:26.448Z,60.91
2018-12-01T11:17:56.649Z,60.79
2018-12-01T11:21:26.959Z,60.67
2018-12-01T11:24:57.049Z,60.57
2018-12-01T11:28:27.239Z,60.46
2018-12-01T11:31:57.540Z,60.36
2018-12-01T11:35:28.035Z,60.22
2018-12-01T11:38:58.120Z,60.12
2018-12-01T11:42:28.171Z,60
2018-12-01T11:45:58.594Z,59.89
2018-12-01T11:49:28.741Z,59.72
2018-12-01T11:52:58.876Z,59.62
2018-12-01T11:56:29.033Z,59.48
2018-12-01T11:59:59.163Z,59.37
2018-12-01T12:00:17.433Z,59.36
2018-12-01T12:03:47.594Z,59.24
2018-12-01T12:08:22.867Z,59.13
2018-12-01T12:11:52.994Z,58.95
2018-12-01T12:15:23.714Z,58.8
2018-12-01T12:18:53.856Z,58.65
2018-12-01T12:22:23.877Z,58.5
2018-12-01T12:25:54.066Z,58.4
2018-12-01T12:29:24.087Z,58.28
2018-12-01T12:32:54.093Z,58.12
2018-12-01T12:36:24.092Z,58.01
2018-12-01T12:39:54.108Z,57.88
2018-12-01T12:43:24.068Z,57.75
2018-12-01T12:46:54.165Z,57.64
2018-12-01T12:50:24.229Z,57.52
2018-12-01T12:53:54.389Z,57.43
2018-12-01T12:57:24.429Z,57.31
2018-12-01T13:00:54.580Z,57.19
2018-12-01T13:04:24.631Z,57.06
2018-12-01T13:07:54.896Z,56.96
2018-12-01T13:11:24.981Z,56.82
2018-12-01T13:14:55.061Z,56.72
2018-12-01T13:18:25.171Z,56.56
2018-12-01T13:21:55.227Z,56.46
2018-12-01T13:25:25.272Z,56.34
2018-12-01T13:28:55.352Z,56.24
2018-12-01T13:32:25.473Z,56.13
2018-12-01T13:35:56.124Z,56.03
2018-12-01T13:39:26.150Z,55.95
2018-12-01T13:42:56.304Z,55.83
2018-12-01T13:46:26.334Z,55.74
2018-12-01T13:49:56.325Z,55.63
2018-12-01T13:53:26.345Z,55.55
2018-12-01T13:56:56.536Z,55.46
2018-12-01T14:00:18.750Z,55.39
2018-12-01T14:03:49.007Z,55.31
2018-12-01T14:07:19.044Z,55.26
2018-12-01T14:10:49.773Z,55.18
2018-12-01T14:14:19.853Z,55.11
2018-12-01T14:17:50.078Z,55.04
2018-12-01T14:21:20.128Z,54.96
2018-12-01T14:24:50.410Z,54.88
2018-12-01T14:28:20.423Z,54.8
2018-12-01T14:31:50.529Z,54.74
2018-12-01T14:35:23.578Z,54.64
2018-12-01T14:38:53.645Z,54.58
2018-12-01T14:42:23.655Z,54.54
2018-12-01T14:45:53.740Z,54.47
2018-12-01T14:49:23.810Z,54.4
2018-12-01T14:52:54.915Z,54.35
2018-12-01T14:56:25.070Z,54.3
2018-12-01T14:59:55.120Z,54.26
2018-12-01T15:03:25.966Z,54.23
2018-12-01T15:06:56.300Z,54.22
2018-12-01T15:10:26.350Z,54.18
2018-12-01T15:13:56.460Z,54.18
2018-12-01T15:17:26.520Z,54.18
2018-12-01T15:20:56.610Z,54.16
2018-12-01T15:24:26.682Z,54.15
2018-12-01T15:27:56.984Z,54.15
2018-12-01T15:31:26.990Z,54.18
2018-12-01T15:34:57.210Z,54.16
2018-12-01T15:38:27.282Z,54.19
2018-12-01T15:41:57.420Z,54.19
2018-12-01T15:45:27.532Z,54.2
2018-12-01T15:48:57.651Z,54.19
2018-12-01T15:52:27.669Z,54.22
2018-12-01T15:55:57.780Z,54.23
2018-12-01T15:59:27.771Z,54.26
2018-12-01T16:00:17.901Z,54.26
2018-12-01T16:03:48.091Z,54.29
2018-12-01T16:07:18.406Z,54.32
2018-12-01T16:10:48.491Z,54.35
2018-12-01T16:14:18.591Z,54.37
2018-12-01T16:17:49.151Z,54.4
2018-12-01T16:21:19.166Z,54.44
2018-12-01T16:24:49.312Z,54.46
2018-12-01T16:28:19.526Z,54.47
2018-12-01T16:31:49.592Z,54.51
2018-12-01T16:35:19.681Z,54.54
2018-12-01T16:38:49.917Z,54.58
2018-12-01T16:42:20.253Z,54.6
2018-12-01T16:45:50.983Z,54.63
2018-12-01T16:49:21.102Z,54.68
2018-12-01T16:52:51.172Z,54.71
2018-12-01T16:56:21.352Z,54.74
2018-12-01T16:59:51.412Z,54.79
2018-12-01T17:03:21.482Z,54.83
2018-12-01T17:06:51.567Z,54.87
2018-12-01T17:10:21.984Z,54.89
2018-12-01T17:13:52.203Z,54.95
2018-12-01T17:17:22.211Z,55
2018-12-01T17:20:52.263Z,55.04
2018-12-01T17:24:22.383Z,55.08
2018-12-01T17:27:53.773Z,55.12
2018-12-01T17:31:23.843Z,55.15
2018-12-01T17:34:53.957Z,55.18
2018-12-01T17:38:24.138Z,55.22
2018-12-01T17:41:56.116Z,55.28
2018-12-01T17:45:26.177Z,55.32
2018-12-01T17:48:56.368Z,55.37
2018-12-01T17:52:26.534Z,55.4
2018-12-01T17:55:56.654Z,55.45
2018-12-01T17:59:26.695Z,55.49
2018-12-01T18:00:18.326Z,55.51
2018-12-01T18:03:48.360Z,55.55
2018-12-01T18:07:18.384Z,55.58
2018-12-01T18:10:49.975Z,55.63
2018-12-01T18:14:20.045Z,55.66
2018-12-01T18:17:50.115Z,55.71
2018-12-01T18:21:20.145Z,55.77
2018-12-01T18:24:50.171Z,55.82
2018-12-01T18:28:23.168Z,55.85
2018-12-01T18:31:53.216Z,55.89
2018-12-01T18:35:23.285Z,55.95
2018-12-01T18:38:53.456Z,55.96
2018-12-01T18:42:23.546Z,56.02
2018-12-01T18:45:56.649Z,56.1
2018-12-01T18:49:26.716Z,56.13
2018-12-01T18:52:59.496Z,56.19
2018-12-01T18:56:29.516Z,56.24
2018-12-01T18:59:59.579Z,56.28
2018-12-01T19:03:31.386Z,56.32
2018-12-01T19:07:01.406Z,56.4
2018-12-01T19:10:31.572Z,56.43
2018-12-01T19:14:01.908Z,56.46
2018-12-01T19:17:31.937Z,56.51
2018-12-01T19:21:02.067Z,56.57
2018-12-01T19:24:32.188Z,56.62
2018-12-01T19:28:02.277Z,56.69
2018-12-01T19:31:32.377Z,56.75
2018-12-01T19:35:03.148Z,56.81
2018-12-01T19:38:33.159Z,56.87
2018-12-01T19:42:03.421Z,56.9
2018-12-01T19:45:33.537Z,56.96
2018-12-01T19:49:04.168Z,57.02
2018-12-01T19:52:34.168Z,57.06
2018-12-01T19:56:04.307Z,57.1
2018-12-01T19:59:34.508Z,57.15
2018-12-01T20:00:19.038Z,57.16
2018-12-01T20:03:49.219Z,57.21
2018-12-01T20:07:19.504Z,57.26
2018-12-01T20:11:05.961Z,57.31
2018-12-01T20:14:36.309Z,57.34
2018-12-01T20:18:12.169Z,57.4
2018-12-01T20:21:42.269Z,57.45
2018-12-01T20:25:13.049Z,57.5
2018-12-01T20:28:43.349Z,57.56
2018-12-01T20:32:13.452Z,57.6
2018-12-01T20:35:53.660Z,57.66
2018-12-01T20:39:34.732Z,57.7
2018-12-01T20:43:04.939Z,57.74
2018-12-01T20:46:35.032Z,57.8
2018-12-01T20:50:09.980Z,57.84
2018-12-01T20:53:40.078Z,57.9
2018-12-01T20:57:12.979Z,57.93
2018-12-01T21:00:43.170Z,57.99
2018-12-01T21:04:13.110Z,58.04
2018-12-01T21:07:43.099Z,58.09
2018-12-01T21:11:13.941Z,58.13
2018-12-01T21:14:44.195Z,58.17
2018-12-01T21:18:14.291Z,58.24
2018-12-01T21:21:44.341Z,58.29
2018-12-01T21:25:16.008Z,58.34
2018-12-01T21:28:46.071Z,58.4
2018-12-01T21:32:16.151Z,58.44
2018-12-01T21:35:46.163Z,58.48
2018-12-01T21:39:16.231Z,58.56
2018-12-01T21:42:46.402Z,58.61
2018-12-01T21:46:16.472Z,58.66
2018-12-01T21:49:46.642Z,58.7
2018-12-01T21:53:20.572Z,58.76
2018-12-01T21:56:50.582Z,58.8
2018-12-01T22:00:18.652Z,58.84
2018-12-01T22:03:48.812Z,58.89
2018-12-01T22:07:18.873Z,58.91
2018-12-01T22:10:51.592Z,58.98
2018-12-01T22:14:21.597Z,58.99
2018-12-01T22:17:51.843Z,59.03
2018-12-01T22:21:21.813Z,59.08
2018-12-01T22:24:51.872Z,59.12
2018-12-01T22:28:21.922Z,59.16
2018-12-01T22:31:52.043Z,59.2
2018-12-01T22:35:23.373Z,59.22
2018-12-01T22:38:53.473Z,59.27
2018-12-01T22:42:23.533Z,59.32
2018-12-01T22:45:53.523Z,59.34
2018-12-01T22:49:23.534Z,59.38
2018-12-01T22:52:54.068Z,59.43
2018-12-01T22:56:28.770Z,59.45
2018-12-01T22:59:59.124Z,59.49
2018-12-01T23:03:30.884Z,59.51
2018-12-01T23:07:00.908Z,59.54
2018-12-01T23:10:30.998Z,59.58
2018-12-01T23:14:01.184Z,59.62
2018-12-01T23:17:31.345Z,59.66
2018-12-01T23:21:01.627Z,59.7
2018-12-01T23:24:31.690Z,59.73
2018-12-01T23:28:01.825Z,59.78
2018-12-01T23:31:32.095Z,59.81
2018-12-01T23:35:02.211Z,59.86
2018-12-01T23:38:32.265Z,59.87
2018-12-01T23:42:02.385Z,59.93
2018-12-01T23:45:32.446Z,59.95
2018-12-01T23:49:02.526Z,59.99
2018-12-01T23:52:32.538Z,60.04
2018-12-01T23:56:02.666Z,60.05
2018-12-01T23:59:32.686Z,60.1
